createdAt,value
2017-11-08T00:01:40.602Z,82.97
2017-11-08T00:04:07.035Z,83.04
2017-11-08T00:06:33.478Z,83.09
2017-11-08T00:08:59.917Z,83.28
2017-11-08T00:11:26.357Z,83.34
2017-11-08T00:13:53.599Z,83.22
2017-11-08T00:16:20.030Z,83.16
2017-11-08T00:18:46.462Z,83.20
2017-11-08T00:21:12.796Z,82.96
2017-11-08T00:23:39.242Z,83.05
2017-11-08T00:26:05.663Z,83.30
2017-11-08T00:28:32.030Z,83.48
2017-11-08T00:30:59.353Z,83.68
2017-11-08T00:33:25.786Z,83.00
2017-11-08T00:35:52.242Z,82.19
2017-11-08T00:38:18.656Z,82.35
2017-11-08T00:40:45.098Z,82.76
2017-11-08T00:43:11.554Z,82.88
2017-11-08T00:45:37.958Z,83.21
2017-11-08T00:48:05.080Z,83.48
2017-11-08T00:50:31.555Z,83.60
2017-11-08T00:52:57.932Z,83.94
2017-11-08T00:55:24.242Z,84.54
2017-11-08T00:57:50.654Z,84.71
2017-11-08T01:00:17.076Z,84.79
2017-11-08T01:02:43.516Z,84.91
2017-11-08T01:05:10.549Z,84.85
2017-11-08T01:07:36.932Z,84.73
2017-11-08T01:10:03.441Z,84.73
2017-11-08T01:12:29.885Z,84.55
2017-11-08T01:14:56.411Z,84.50
2017-11-08T01:17:22.839Z,84.57
2017-11-08T01:19:49.276Z,84.38
2017-11-08T01:22:16.424Z,84.16
2017-11-08T01:24:42.859Z,84.03
2017-11-08T01:27:09.294Z,83.88
2017-11-08T01:29:35.626Z,83.77
2017-11-08T01:32:02.068Z,83.80
2017-11-08T01:34:28.495Z,83.55
2017-11-08T01:36:54.939Z,83.29
2017-11-08T01:39:22.111Z,83.02
2017-11-08T01:41:48.516Z,82.68
2017-11-08T01:44:14.952Z,82.29
2017-11-08T01:46:41.283Z,82.07
2017-11-08T01:49:07.813Z,81.82
2017-11-08T01:51:34.255Z,81.51
2017-11-08T01:54:00.690Z,81.39
2017-11-08T01:56:27.847Z,81.04
2017-11-08T01:58:54.275Z,80.86
2017-11-08T02:01:20.737Z,81.18
2017-11-08T02:03:47.153Z,81.13
2017-11-08T02:06:13.589Z,80.84
2017-11-08T02:08:40.014Z,80.38
2017-11-08T02:11:06.451Z,80.00
2017-11-08T02:13:33.600Z,79.65
2017-11-08T02:16:00.137Z,79.43
2017-11-08T02:18:26.581Z,79.35
2017-11-08T02:20:52.941Z,79.32
2017-11-08T02:23:19.450Z,79.21
2017-11-08T02:25:45.876Z,79.29
2017-11-08T02:28:12.310Z,79.20
2017-11-08T02:30:39.466Z,79.08
2017-11-08T02:33:05.926Z,78.98
2017-11-08T02:35:32.435Z,78.85
2017-11-08T02:37:58.868Z,78.91
2017-11-08T02:40:25.303Z,79.00
2017-11-08T02:42:51.674Z,78.99
2017-11-08T02:45:18.173Z,78.83
2017-11-08T02:47:45.332Z,78.79
2017-11-08T02:50:11.768Z,78.75
2017-11-08T02:52:38.206Z,78.56
2017-11-08T02:55:04.636Z,78.46
2017-11-08T02:57:31.062Z,78.45
2017-11-08T02:59:57.500Z,78.52
2017-11-08T03:02:23.935Z,78.74
2017-11-08T03:04:51.195Z,78.68
2017-11-08T03:07:17.621Z,78.39
2017-11-08T03:09:44.056Z,78.26
2017-11-08T03:12:10.498Z,78.14
2017-11-08T03:14:36.817Z,78.30
2017-11-08T03:17:03.257Z,78.44
2017-11-08T03:19:29.588Z,78.29
2017-11-08T03:21:56.843Z,77.96
2017-11-08T03:24:23.278Z,77.84
2017-11-08T03:26:49.749Z,77.77
2017-11-08T03:29:16.146Z,77.49
2017-11-08T03:31:42.583Z,77.07
2017-11-08T03:34:08.893Z,77.13
2017-11-08T03:36:35.321Z,77.38
2017-11-08T03:39:02.602Z,77.34
2017-11-08T03:41:29.046Z,77.09
2017-11-08T03:43:55.499Z,77.00
2017-11-08T03:46:21.924Z,76.82
2017-11-08T03:48:48.372Z,76.79
2017-11-08T03:51:14.775Z,76.78
2017-11-08T03:53:41.221Z,76.73
2017-11-08T03:56:08.362Z,76.42
2017-11-08T03:58:34.731Z,76.33
2017-11-08T04:01:01.232Z,76.23
2017-11-08T04:03:27.671Z,76.15
2017-11-08T04:05:54.099Z,76.28
2017-11-08T04:08:20.543Z,76.32
2017-11-08T04:10:46.909Z,76.46
2017-11-08T04:13:14.149Z,76.48
2017-11-08T04:15:40.556Z,76.42
2017-11-08T04:18:07.000Z,76.55
2017-11-08T04:20:33.433Z,76.63
2017-11-08T04:22:59.752Z,76.67
2017-11-08T04:25:26.201Z,76.63
2017-11-08T04:27:52.650Z,76.48
2017-11-08T04:30:19.836Z,76.39
2017-11-08T04:32:46.323Z,76.37
2017-11-08T04:35:12.749Z,76.18
2017-11-08T04:37:39.184Z,76.10
2017-11-08T04:40:05.622Z,76.31
2017-11-08T04:42:32.085Z,76.20
2017-11-08T04:44:58.433Z,76.22
2017-11-08T04:47:25.753Z,76.29
2017-11-08T04:49:52.114Z,76.21
2017-11-08T04:52:18.644Z,76.29
2017-11-08T04:54:45.049Z,76.31
2017-11-08T04:57:11.481Z,76.32
2017-11-08T04:59:37.946Z,76.25
2017-11-08T05:02:04.484Z,76.23
2017-11-08T05:04:31.538Z,76.32
2017-11-08T05:06:57.913Z,76.16
2017-11-08T05:09:24.355Z,76.08
2017-11-08T05:11:50.886Z,76.04
2017-11-08T05:14:17.365Z,76.13
2017-11-08T05:16:43.779Z,76.11
2017-11-08T05:19:10.213Z,76.06
2017-11-08T05:21:37.365Z,76.24
2017-11-08T05:24:03.798Z,76.31
2017-11-08T05:26:30.233Z,76.27
2017-11-08T05:28:56.676Z,76.29
2017-11-08T05:31:23.074Z,76.40
2017-11-08T05:33:49.548Z,76.41
2017-11-08T05:36:15.974Z,76.50
2017-11-08T05:38:43.134Z,76.46
2017-11-08T05:41:09.458Z,76.44
2017-11-08T05:43:35.899Z,76.41
2017-11-08T05:46:02.326Z,76.37
2017-11-08T05:48:28.733Z,76.35
2017-11-08T05:50:55.194Z,76.28
2017-11-08T05:53:21.629Z,76.42
2017-11-08T05:55:48.678Z,76.61
2017-11-08T05:58:15.047Z,77.15
2017-11-08T06:00:41.555Z,77.48
2017-11-08T06:03:07.981Z,76.83
2017-11-08T06:05:34.416Z,77.02
2017-11-08T06:08:00.786Z,77.12
2017-11-08T06:10:27.295Z,76.89
2017-11-08T06:12:54.437Z,76.65
2017-11-08T06:15:20.872Z,76.25
2017-11-08T06:17:47.306Z,76.08
2017-11-08T06:20:13.946Z,75.74
2017-11-08T06:22:40.389Z,75.41
2017-11-08T06:25:06.815Z,74.99
2017-11-08T06:27:33.251Z,74.79
2017-11-08T06:29:59.787Z,74.33
2017-11-08T06:32:26.231Z,74.10
2017-11-08T06:34:52.664Z,74.06
2017-11-08T06:37:19.100Z,73.96
2017-11-08T06:39:45.935Z,73.81
2017-11-08T06:42:12.370Z,73.40
2017-11-08T06:47:10.547Z,73.16
2017-11-08T06:49:36.970Z,73.16
2017-11-08T06:52:03.857Z,72.86
2017-11-08T06:54:30.245Z,72.66
2017-11-08T06:56:56.714Z,72.68
2017-11-08T07:01:54.907Z,71.74
2017-11-08T07:04:21.351Z,71.54
2017-11-08T07:06:47.784Z,71.56
2017-11-08T07:09:14.323Z,71.31
2017-11-08T07:11:40.870Z,70.80
2017-11-08T07:14:07.371Z,70.63
2017-11-08T07:16:34.010Z,69.98
2017-11-08T07:19:01.075Z,69.22
2017-11-08T07:21:27.585Z,69.14
2017-11-08T07:23:54.047Z,69.28
2017-11-08T07:26:20.893Z,69.07
2017-11-08T07:28:47.271Z,69.19
2017-11-08T07:31:13.764Z,68.79
2017-11-08T07:33:40.617Z,68.29
2017-11-08T07:36:06.974Z,68.37
2017-11-08T07:38:33.475Z,68.31
2017-11-08T07:46:03.401Z,68.23
2017-11-08T07:48:29.833Z,68.04
2017-11-08T07:50:56.407Z,68.08
2017-11-08T07:53:22.878Z,67.87
2017-11-08T07:55:49.576Z,67.46
2017-11-08T07:58:16.012Z,67.36
2017-11-08T08:00:42.549Z,67.11
2017-11-08T08:03:09.497Z,66.93
2017-11-08T08:05:36.452Z,66.26
2017-11-08T08:08:02.878Z,66.62
2017-11-08T08:10:29.758Z,66.31
2017-11-08T08:13:00.100Z,65.90
2017-11-08T08:15:26.575Z,65.54
2017-11-08T08:17:53.428Z,65.45
2017-11-08T08:20:19.953Z,65.42
2017-11-08T08:22:46.409Z,65.58
2017-11-08T08:25:13.858Z,65.84
2017-11-08T08:27:40.293Z,65.49
2017-11-08T08:30:06.629Z,65.19
2017-11-08T08:32:33.070Z,65.01
2017-11-08T08:34:59.989Z,64.79
2017-11-08T08:37:26.450Z,63.98
2017-11-08T08:39:52.877Z,64.26
2017-11-08T08:42:19.826Z,63.92
2017-11-08T08:44:46.374Z,63.04
2017-11-08T08:47:12.909Z,62.62
2017-11-08T08:49:39.745Z,62.18
2017-11-08T08:52:06.428Z,61.46
2017-11-08T08:54:32.966Z,61.68
2017-11-08T08:56:59.874Z,61.74
2017-11-08T08:59:26.412Z,60.61
2017-11-08T09:01:52.949Z,60.65
2017-11-08T09:04:19.885Z,60.94
2017-11-08T09:06:46.431Z,60.77
2017-11-08T09:09:12.858Z,60.25
2017-11-08T09:11:39.703Z,60.07
2017-11-08T09:14:06.149Z,60.47
2017-11-08T09:16:32.692Z,60.58
2017-11-08T09:18:59.323Z,60.33
2017-11-08T09:21:25.850Z,60.05
2017-11-08T09:23:52.285Z,59.81
2017-11-08T09:26:18.965Z,60.25
2017-11-08T09:28:45.394Z,60.35
2017-11-08T09:31:11.867Z,60.34
2017-11-08T09:33:38.534Z,60.31
2017-11-08T09:36:04.871Z,60.21
2017-11-08T09:38:31.823Z,60.04
2017-11-08T09:40:58.454Z,59.99
2017-11-08T09:43:24.821Z,59.81
2017-11-08T09:45:51.324Z,59.57
2017-11-08T09:48:18.167Z,59.91
2017-11-08T09:50:44.641Z,59.84
2017-11-08T09:53:11.159Z,59.75
2017-11-08T09:55:38.086Z,59.41
2017-11-08T09:58:05.443Z,58.33
2017-11-08T10:00:32.085Z,57.88
2017-11-08T10:02:58.525Z,57.13
2017-11-08T10:05:25.360Z,56.78
2017-11-08T10:07:51.750Z,56.19
2017-11-08T10:10:18.236Z,55.26
2017-11-08T10:12:45.185Z,55.85
2017-11-08T10:15:11.722Z,56.01
2017-11-08T10:17:38.568Z,56.12
2017-11-08T10:20:05.748Z,56.51
2017-11-08T10:22:32.535Z,56.75
2017-11-08T10:24:59.059Z,56.98
2017-11-08T10:27:25.534Z,56.73
2017-11-08T10:29:52.097Z,56.49
2017-11-08T10:32:18.601Z,56.63
2017-11-08T10:34:45.006Z,56.60
2017-11-08T10:37:11.367Z,56.59
2017-11-08T10:39:38.014Z,56.71
2017-11-08T10:42:04.406Z,56.58
2017-11-08T10:44:31.170Z,56.17
2017-11-08T10:46:58.414Z,55.66
2017-11-08T10:49:24.890Z,56.18
2017-11-08T10:51:51.384Z,56.14
2017-11-08T10:54:18.330Z,55.84
2017-11-08T10:56:44.798Z,55.94
2017-11-08T10:59:11.289Z,55.59
2017-11-08T11:01:38.199Z,55.73
2017-11-08T11:04:05.191Z,55.19
2017-11-08T11:06:31.743Z,55.50
2017-11-08T11:08:58.362Z,56.25
2017-11-08T11:11:24.872Z,56.42
2017-11-08T11:13:51.336Z,56.63
2017-11-08T11:16:18.402Z,57.20
2017-11-08T11:18:44.859Z,57.55
2017-11-08T11:21:11.488Z,57.55
2017-11-08T11:23:38.202Z,58.74
2017-11-08T11:26:04.640Z,59.31
2017-11-08T11:28:31.058Z,59.48
2017-11-08T11:30:57.613Z,59.80
2017-11-08T11:33:24.047Z,60.31
2017-11-08T11:35:50.484Z,60.35
2017-11-08T11:38:17.956Z,60.40
2017-11-08T11:40:44.693Z,60.35
2017-11-08T11:43:11.120Z,60.64
2017-11-08T11:45:37.555Z,61.02
2017-11-08T11:48:04.102Z,61.08
2017-11-08T11:50:30.631Z,61.13
2017-11-08T11:52:56.964Z,61.22
2017-11-08T11:55:23.810Z,61.41
2017-11-08T11:57:50.316Z,61.73
2017-11-08T12:00:16.912Z,61.92
2017-11-08T12:02:43.559Z,61.64
2017-11-08T12:05:10.053Z,61.59
2017-11-08T12:07:36.606Z,61.45
2017-11-08T12:10:03.446Z,60.49
2017-11-08T12:12:29.992Z,59.19
2017-11-08T12:14:56.520Z,59.33
2017-11-08T12:17:23.384Z,59.55
2017-11-08T12:19:49.978Z,59.99
2017-11-08T12:22:16.341Z,60.45
2017-11-08T12:24:43.190Z,60.76
2017-11-08T12:27:09.616Z,61.25
2017-11-08T12:29:36.050Z,61.56
2017-11-08T12:32:02.940Z,61.33
2017-11-08T12:34:29.444Z,61.59
2017-11-08T12:36:55.869Z,61.77
2017-11-08T12:39:22.715Z,62.04
2017-11-08T12:41:49.263Z,61.93
2017-11-08T12:44:15.582Z,61.88
2017-11-08T12:46:42.530Z,61.78
2017-11-08T12:49:08.973Z,61.74
2017-11-08T12:51:35.559Z,61.92
2017-11-08T12:54:01.977Z,61.88
2017-11-08T12:56:28.619Z,61.84
2017-11-08T12:58:55.125Z,61.99
2017-11-08T13:01:21.686Z,62.21
2017-11-08T13:03:48.621Z,62.38
2017-11-08T13:06:15.122Z,62.10
2017-11-08T13:08:41.574Z,62.31
2017-11-08T13:11:08.186Z,62.38
2017-11-08T13:13:34.881Z,62.45
2017-11-08T13:16:02.232Z,62.51
2017-11-08T13:18:28.738Z,62.61
2017-11-08T13:20:55.281Z,62.80
2017-11-08T13:23:22.263Z,62.82
2017-11-08T13:25:48.870Z,62.93
2017-11-08T13:28:15.310Z,62.76
2017-11-08T13:30:42.046Z,62.96
2017-11-08T13:33:08.570Z,62.94
2017-11-08T13:35:35.236Z,63.22
2017-11-08T13:38:01.964Z,63.27
2017-11-08T13:40:28.400Z,63.16
2017-11-08T13:42:54.870Z,63.39
2017-11-08T13:45:21.373Z,63.14
2017-11-08T13:47:48.056Z,63.11
2017-11-08T13:50:14.652Z,63.10
2017-11-08T13:52:41.301Z,63.17
2017-11-08T13:55:07.837Z,62.94
2017-11-08T13:57:34.375Z,62.91
2017-11-08T14:00:00.905Z,62.92
2017-11-08T14:02:27.544Z,63.04
2017-11-08T14:04:53.979Z,63.25
2017-11-08T14:07:20.414Z,63.16
2017-11-08T14:09:47.163Z,63.11
2017-11-08T14:12:13.600Z,63.24
2017-11-08T14:14:40.038Z,63.46
2017-11-08T14:17:06.908Z,63.37
2017-11-08T14:19:33.407Z,63.22
2017-11-08T14:22:00.157Z,62.97
2017-11-08T14:24:26.768Z,63.18
2017-11-08T14:26:53.229Z,63.28
2017-11-08T14:29:19.659Z,63.49
2017-11-08T14:31:46.405Z,63.60
2017-11-08T14:34:12.837Z,63.44
2017-11-08T14:36:41.937Z,63.14
2017-11-08T14:39:08.784Z,63.02
2017-11-08T14:41:35.316Z,63.40
2017-11-08T14:44:02.157Z,63.59
2017-11-08T14:46:28.910Z,63.59
2017-11-08T14:48:55.359Z,63.77
2017-11-08T14:51:21.870Z,63.95
2017-11-08T14:53:48.616Z,64.13
2017-11-08T14:56:15.297Z,64.21
2017-11-08T14:58:41.763Z,64.38
2017-11-08T15:01:08.339Z,64.65
2017-11-08T15:03:34.707Z,64.74
2017-11-08T15:06:01.165Z,64.84
2017-11-08T15:08:27.635Z,64.62
2017-11-08T15:10:54.155Z,64.92
2017-11-08T15:13:20.606Z,65.21
2017-11-08T15:15:47.041Z,65.31
2017-11-08T15:18:13.783Z,65.33
2017-11-08T15:20:40.339Z,65.46
2017-11-08T15:23:06.838Z,65.53
2017-11-08T15:25:33.599Z,65.64
2017-11-08T15:28:00.136Z,65.83
2017-11-08T15:30:26.663Z,65.99
2017-11-08T15:32:53.621Z,66.06
2017-11-08T15:35:20.064Z,66.26
2017-11-08T15:37:46.493Z,66.44
2017-11-08T15:40:13.439Z,66.67
2017-11-08T15:42:39.943Z,66.83
2017-11-08T15:45:06.411Z,67.06
2017-11-08T15:47:33.050Z,67.34
2017-11-08T15:49:59.586Z,67.40
2017-11-08T15:52:26.020Z,67.57
2017-11-08T15:54:52.455Z,67.61
2017-11-08T15:57:18.893Z,67.72
2017-11-08T15:59:45.350Z,67.96
2017-11-08T16:02:11.785Z,68.08
2017-11-08T16:04:38.243Z,68.22
2017-11-08T16:07:04.835Z,68.38
2017-11-08T16:09:31.277Z,68.52
2017-11-08T16:11:57.600Z,68.46
2017-11-08T16:14:24.006Z,68.41
2017-11-08T16:16:51.373Z,68.59
2017-11-08T16:19:18.416Z,68.70
2017-11-08T16:21:44.836Z,68.58
2017-11-08T16:24:11.401Z,68.69
2017-11-08T16:26:37.852Z,68.99
2017-11-08T16:29:04.286Z,69.17
2017-11-08T16:31:30.719Z,69.29
2017-11-08T16:33:57.153Z,69.40
2017-11-08T16:36:23.597Z,69.63
2017-11-08T16:38:49.955Z,69.65
2017-11-08T16:41:16.424Z,69.79
2017-11-08T16:43:42.860Z,69.84
2017-11-08T16:46:09.320Z,69.76
2017-11-08T16:48:36.169Z,69.65
2017-11-08T16:51:02.606Z,70.01
2017-11-08T16:53:29.243Z,70.11
2017-11-08T16:55:55.678Z,70.33
2017-11-08T16:58:22.113Z,70.44
2017-11-08T17:00:48.547Z,70.54
2017-11-08T17:03:14.982Z,70.75
2017-11-08T17:05:42.568Z,71.13
2017-11-08T17:08:08.978Z,71.50
2017-11-08T17:10:35.413Z,71.36
2017-11-08T17:13:01.783Z,71.24
2017-11-08T17:15:28.282Z,71.17
2017-11-08T17:17:54.646Z,71.26
2017-11-08T17:20:21.152Z,71.30
2017-11-08T17:22:48.322Z,71.35
2017-11-08T17:25:14.746Z,71.36
2017-11-08T17:27:41.171Z,71.31
2017-11-08T17:30:07.579Z,71.48
2017-11-08T17:32:34.047Z,71.65
2017-11-08T17:35:00.476Z,71.96
2017-11-08T17:37:26.847Z,72.04
2017-11-08T17:39:54.061Z,72.39
2017-11-08T17:42:20.522Z,72.65
2017-11-08T17:44:46.904Z,72.60
2017-11-08T17:47:13.300Z,72.64
2017-11-08T17:49:39.633Z,72.62
2017-11-08T17:52:06.142Z,72.55
2017-11-08T17:54:32.566Z,72.54
2017-11-08T17:56:59.651Z,72.64
2017-11-08T17:59:26.029Z,72.64
2017-11-08T18:01:52.489Z,72.82
2017-11-08T18:04:18.876Z,73.29
2017-11-08T18:06:45.397Z,73.76
2017-11-08T18:09:11.791Z,73.84
2017-11-08T18:11:38.233Z,73.72
2017-11-08T18:14:05.478Z,74.16
2017-11-08T18:16:31.809Z,73.99
2017-11-08T18:18:58.245Z,74.01
2017-11-08T18:21:24.680Z,73.98
2017-11-08T18:23:51.114Z,74.07
2017-11-08T18:26:17.548Z,74.24
2017-11-08T18:28:43.983Z,74.21
2017-11-08T18:31:11.245Z,74.34
2017-11-08T18:33:37.674Z,74.48
2017-11-08T18:36:04.115Z,74.54
2017-11-08T18:38:30.540Z,74.66
2017-11-08T18:40:56.975Z,74.82
2017-11-08T18:43:23.437Z,74.86
2017-11-08T18:45:49.768Z,74.71
2017-11-08T18:48:17.106Z,74.76
2017-11-08T18:50:43.526Z,74.85
2017-11-08T18:53:09.976Z,75.03
2017-11-08T18:55:36.403Z,75.07
2017-11-08T18:58:02.839Z,75.02
2017-11-08T19:00:29.281Z,74.96
2017-11-08T19:02:55.706Z,74.85
2017-11-08T19:05:22.755Z,74.65
2017-11-08T19:07:49.092Z,74.65
2017-11-08T19:10:15.522Z,74.67
2017-11-08T19:12:41.965Z,75.03
2017-11-08T19:15:08.401Z,75.11
2017-11-08T19:17:34.835Z,75.21
2017-11-08T19:20:01.213Z,76.45
2017-11-08T19:22:28.422Z,76.37
2017-11-08T19:24:54.777Z,76.84
2017-11-08T19:27:21.288Z,76.76
2017-11-08T19:29:47.725Z,76.56
2017-11-08T19:32:14.261Z,76.26
2017-11-08T19:34:40.687Z,76.01
2017-11-08T19:37:07.122Z,76.13
2017-11-08T19:39:34.366Z,76.05
2017-11-08T19:42:00.711Z,75.66
2017-11-08T19:44:27.173Z,75.58
2017-11-08T19:46:53.589Z,75.59
2017-11-08T19:49:20.015Z,75.80
2017-11-08T19:51:46.391Z,75.42
2017-11-08T19:54:12.785Z,75.19
2017-11-08T19:56:40.042Z,75.03
2017-11-08T19:59:06.468Z,74.99
2017-11-08T20:01:32.844Z,74.79
2017-11-08T20:03:59.236Z,74.29
2017-11-08T20:06:25.669Z,73.71
2017-11-08T20:08:52.107Z,73.38
2017-11-08T20:11:18.539Z,73.53
2017-11-08T20:13:45.731Z,73.74
2017-11-08T20:16:12.149Z,73.93
2017-11-08T20:18:38.560Z,74.19
2017-11-08T20:21:04.995Z,74.10
2017-11-08T20:23:31.429Z,74.16
2017-11-08T20:25:57.863Z,74.19
2017-11-08T20:28:24.298Z,74.27
2017-11-08T20:30:51.561Z,74.43
2017-11-08T20:33:17.981Z,74.63
2017-11-08T20:35:44.427Z,74.65
2017-11-08T20:38:10.823Z,74.75
2017-11-08T20:40:37.291Z,74.79
2017-11-08T20:43:03.735Z,74.78
2017-11-08T20:45:30.161Z,74.85
2017-11-08T20:47:57.516Z,75.20
2017-11-08T20:50:23.952Z,75.83
2017-11-08T20:52:50.398Z,76.10
2017-11-08T20:55:16.721Z,76.22
2017-11-08T20:57:43.157Z,76.13
2017-11-08T21:00:09.484Z,76.15
2017-11-08T21:02:35.957Z,76.44
2017-11-08T21:05:03.173Z,76.39
2017-11-08T21:07:29.491Z,76.51
2017-11-08T21:09:55.838Z,76.43
2017-11-08T21:12:22.215Z,76.40
2017-11-08T21:14:48.708Z,76.31
2017-11-08T21:17:15.154Z,76.29
2017-11-08T21:19:41.471Z,76.31
2017-11-08T21:22:08.843Z,76.38
2017-11-08T21:24:35.265Z,76.31
2017-11-08T21:27:01.702Z,76.31
2017-11-08T21:29:28.162Z,76.27
2017-11-08T21:31:54.640Z,76.21
2017-11-08T21:34:21.106Z,76.58
2017-11-08T21:36:47.675Z,77.04
2017-11-08T21:39:14.695Z,76.98
2017-11-08T21:41:41.138Z,77.05
2017-11-08T21:44:07.562Z,77.21
2017-11-08T21:46:33.997Z,77.48
2017-11-08T21:49:00.388Z,77.57
2017-11-08T21:51:26.867Z,77.67
2017-11-08T21:53:53.304Z,77.92
2017-11-08T21:56:20.558Z,78.33
2017-11-08T21:58:47.000Z,78.53
2017-11-08T22:01:13.424Z,78.83
2017-11-08T22:03:39.860Z,78.74
2017-11-08T22:06:06.303Z,78.71
2017-11-08T22:08:32.729Z,78.74
2017-11-08T22:10:59.098Z,78.97
2017-11-08T22:13:26.315Z,79.36
2017-11-08T22:15:52.752Z,79.48
2017-11-08T22:18:19.184Z,79.22
2017-11-08T22:20:45.646Z,79.41
2017-11-08T22:23:12.030Z,79.51
2017-11-08T22:25:38.486Z,79.48
2017-11-08T22:28:04.892Z,79.50
2017-11-08T22:30:32.018Z,79.57
2017-11-08T22:32:58.517Z,79.58
2017-11-08T22:35:24.951Z,79.87
2017-11-08T22:37:51.377Z,80.01
2017-11-08T22:40:17.813Z,80.09
2017-11-08T22:42:44.255Z,80.19
2017-11-08T22:45:10.695Z,80.49
2017-11-08T22:47:37.833Z,80.40
2017-11-08T22:50:04.268Z,80.31
2017-11-08T22:52:30.701Z,80.33
2017-11-08T22:54:57.145Z,80.21
2017-11-08T22:57:23.579Z,80.22
2017-11-08T22:59:50.007Z,80.43
2017-11-08T23:02:16.409Z,80.38
2017-11-08T23:04:43.544Z,80.81
2017-11-08T23:07:10.019Z,80.74
2017-11-08T23:09:36.436Z,80.59
2017-11-08T23:12:02.835Z,80.39
2017-11-08T23:14:29.229Z,80.39
2017-11-08T23:16:55.597Z,80.42
2017-11-08T23:19:21.995Z,80.31
2017-11-08T23:21:49.148Z,80.25
2017-11-08T23:24:15.481Z,80.40
2017-11-08T23:26:41.815Z,80.40
2017-11-08T23:29:08.247Z,80.36
2017-11-08T23:31:34.579Z,80.23
2017-11-08T23:34:01.023Z,80.13
2017-11-08T23:36:27.448Z,80.11
2017-11-08T23:38:54.702Z,80.10
2017-11-08T23:41:21.156Z,80.07
2017-11-08T23:43:47.479Z,80.07
2017-11-08T23:46:13.911Z,80.08
2017-11-08T23:48:40.338Z,80.03
2017-11-08T23:51:06.773Z,79.98
2017-11-08T23:53:33.217Z,79.97
2017-11-08T23:56:00.463Z,79.85
2017-11-08T23:58:26.831Z,79.77
